Concord, Vermont
Current Conditions -  °F | °C
As of 10:35 AM on Thursday 30 Oct 2014 (Local Time) from KCDA Reporting Station
Overcast Overcast  
Wind Chill: 41°   Ceiling: 3500
Heat Index: 45°   Visibility: 10mi
Dew Point: 35°   Wind: 8mph
Humidity: 69%   Direction: 280°W
Pressure: 29.93"   Gusts: NA
Location:  44.43°N, 71.89°W
Report Text: KCDA 301435Z AUTO 28007KT 10SM SCT024 SCT028 OVC035 07/02 A2993 RMK AO2 T00720019
Loading
Personal Weather Stations






























Interactive Weather Map
Tropical Storm Tracking
New forecast layout! Learn more

10-Day Weather Forecast

Advertisements
Track Severe Weather on mobile